sensor_id;sensor_type;location;lat;lon;timestamp;temperature;humidity
6956;DHT22;50345;51.136;16.886;2024-01-07T00:01:00;1.40;99.90
6956;DHT22;50345;51.136;16.886;2024-01-07T00:03:26;1.40;99.90
6956;DHT22;50345;51.136;16.886;2024-01-07T00:05:51;1.40;99.90
6956;DHT22;50345;51.136;16.886;2024-01-07T00:08:17;1.40;99.90
6956;DHT22;50345;51.136;16.886;2024-01-07T00:10:42;1.40;99.90
6956;DHT22;50345;51.136;16.886;2024-01-07T00:13:08;1.40;99.90
6956;DHT22;50345;51.136;16.886;2024-01-07T00:15:34;1.40;99.90
6956;DHT22;50345;51.136;16.886;2024-01-07T00:17:59;1.40;99.90
6956;DHT22;50345;51.136;16.886;2024-01-07T00:20:25;1.40;99.90
6956;DHT22;50345;51.136;16.886;2024-01-07T00:22:51;1.40;99.90
6956;DHT22;50345;51.136;16.886;2024-01-07T00:25:16;1.40;99.90
6956;DHT22;50345;51.136;16.886;2024-01-07T00:27:43;1.30;99.90
6956;DHT22;50345;51.136;16.886;2024-01-07T00:30:09;1.30;99.90
6956;DHT22;50345;51.136;16.886;2024-01-07T00:32:35;1.30;99.90
6956;DHT22;50345;51.136;16.886;2024-01-07T00:35:00;1.30;99.90
6956;DHT22;50345;51.136;16.886;2024-01-07T00:37:27;1.30;99.90
6956;DHT22;50345;51.136;16.886;2024-01-07T00:39:53;1.30;99.90
6956;DHT22;50345;51.136;16.886;2024-01-07T00:42:18;1.20;99.90
6956;DHT22;50345;51.136;16.886;2024-01-07T00:44:44;1.20;99.90
6956;DHT22;50345;51.136;16.886;2024-01-07T00:47:09;1.20;99.90
6956;DHT22;50345;51.136;16.886;2024-01-07T00:49:35;1.20;99.90
6956;DHT22;50345;51.136;16.886;2024-01-07T00:52:01;1.20;99.90
6956;DHT22;50345;51.136;16.886;2024-01-07T00:54:26;1.20;99.90
6956;DHT22;50345;51.136;16.886;2024-01-07T00:56:52;1.10;99.90
6956;DHT22;50345;51.136;16.886;2024-01-07T00:59:17;1.10;99.90
6956;DHT22;50345;51.136;16.886;2024-01-07T01:01:43;1.10;99.90
6956;DHT22;50345;51.136;16.886;2024-01-07T01:04:08;1.10;99.90
6956;DHT22;50345;51.136;16.886;2024-01-07T01:06:34;1.10;99.90
6956;DHT22;50345;51.136;16.886;2024-01-07T01:08:59;1.10;99.90
6956;DHT22;50345;51.136;16.886;2024-01-07T01:11:25;1.10;99.90
6956;DHT22;50345;51.136;16.886;2024-01-07T01:13:50;1.10;99.90
6956;DHT22;50345;51.136;16.886;2024-01-07T01:16:16;1.10;99.90
6956;DHT22;50345;51.136;16.886;2024-01-07T01:18:42;1.10;99.90
6956;DHT22;50345;51.136;16.886;2024-01-07T01:21:07;1.20;99.90
6956;DHT22;50345;51.136;16.886;2024-01-07T01:23:33;1.20;99.90
6956;DHT22;50345;51.136;16.886;2024-01-07T01:25:59;1.20;99.90
6956;DHT22;50345;51.136;16.886;2024-01-07T01:28:24;1.20;99.90
6956;DHT22;50345;51.136;16.886;2024-01-07T01:30:50;1.20;99.90
6956;DHT22;50345;51.136;16.886;2024-01-07T01:33:15;1.20;99.90
6956;DHT22;50345;51.136;16.886;2024-01-07T01:35:41;1.20;99.90
6956;DHT22;50345;51.136;16.886;2024-01-07T01:38:06;1.10;99.90
6956;DHT22;50345;51.136;16.886;2024-01-07T01:40:32;1.10;99.90
6956;DHT22;50345;51.136;16.886;2024-01-07T01:42:57;1.10;99.90
6956;DHT22;50345;51.136;16.886;2024-01-07T01:45:23;1.00;99.90
6956;DHT22;50345;51.136;16.886;2024-01-07T01:47:49;1.00;99.90
6956;DHT22;50345;51.136;16.886;2024-01-07T01:50:15;1.00;99.90
6956;DHT22;50345;51.136;16.886;2024-01-07T01:52:44;1.00;99.90
6956;DHT22;50345;51.136;16.886;2024-01-07T01:55:09;1.00;99.90
6956;DHT22;50345;51.136;16.886;2024-01-07T01:57:36;1.00;99.90
6956;DHT22;50345;51.136;16.886;2024-01-07T02:00:04;0.90;99.90
6956;DHT22;50345;51.136;16.886;2024-01-07T02:02:33;0.90;99.90
6956;DHT22;50345;51.136;16.886;2024-01-07T02:05:03;0.90;99.90
6956;DHT22;50345;51.136;16.886;2024-01-07T02:07:30;0.90;99.90
6956;DHT22;50345;51.136;16.886;2024-01-07T02:09:55;0.80;99.90
6956;DHT22;50345;51.136;16.886;2024-01-07T02:12:21;0.80;99.90
6956;DHT22;50345;51.136;16.886;2024-01-07T02:14:47;0.80;99.90
6956;DHT22;50345;51.136;16.886;2024-01-07T02:17:12;0.80;99.90
6956;DHT22;50345;51.136;16.886;2024-01-07T02:19:38;0.80;99.90
6956;DHT22;50345;51.136;16.886;2024-01-07T02:22:04;0.80;99.90
6956;DHT22;50345;51.136;16.886;2024-01-07T02:24:29;0.80;99.90
6956;DHT22;50345;51.136;16.886;2024-01-07T02:26:56;0.80;99.90
6956;DHT22;50345;51.136;16.886;2024-01-07T02:29:21;0.80;99.90
6956;DHT22;50345;51.136;16.886;2024-01-07T02:31:47;0.80;99.90
6956;DHT22;50345;51.136;16.886;2024-01-07T02:34:12;0.80;99.90
6956;DHT22;50345;51.136;16.886;2024-01-07T02:36:38;0.80;99.90
6956;DHT22;50345;51.136;16.886;2024-01-07T02:39:04;0.80;99.90
6956;DHT22;50345;51.136;16.886;2024-01-07T02:41:29;0.80;99.90
6956;DHT22;50345;51.136;16.886;2024-01-07T02:43:55;0.80;99.90
6956;DHT22;50345;51.136;16.886;2024-01-07T02:46:21;0.80;99.90
6956;DHT22;50345;51.136;16.886;2024-01-07T02:48:47;0.80;99.90
6956;DHT22;50345;51.136;16.886;2024-01-07T02:51:13;0.80;99.90
6956;DHT22;50345;51.136;16.886;2024-01-07T02:53:38;0.70;99.90
6956;DHT22;50345;51.136;16.886;2024-01-07T02:56:04;0.70;99.90
6956;DHT22;50345;51.136;16.886;2024-01-07T02:58:30;0.70;99.90
6956;DHT22;50345;51.136;16.886;2024-01-07T03:00:55;0.70;99.90
6956;DHT22;50345;51.136;16.886;2024-01-07T03:03:21;0.70;99.90
6956;DHT22;50345;51.136;16.886;2024-01-07T03:05:46;0.70;99.90
6956;DHT22;50345;51.136;16.886;2024-01-07T03:08:12;0.70;99.90
6956;DHT22;50345;51.136;16.886;2024-01-07T03:10:37;0.60;99.90
6956;DHT22;50345;51.136;16.886;2024-01-07T03:13:05;0.50;99.90
6956;DHT22;50345;51.136;16.886;2024-01-07T03:15:31;0.50;99.90
6956;DHT22;50345;51.136;16.886;2024-01-07T03:17:57;0.50;99.90
6956;DHT22;50345;51.136;16.886;2024-01-07T03:20:22;0.50;99.90
6956;DHT22;50345;51.136;16.886;2024-01-07T03:22:48;0.50;99.90
6956;DHT22;50345;51.136;16.886;2024-01-07T03:25:13;0.50;99.90
6956;DHT22;50345;51.136;16.886;2024-01-07T03:27:39;0.50;99.90
6956;DHT22;50345;51.136;16.886;2024-01-07T03:30:05;0.50;99.90
6956;DHT22;50345;51.136;16.886;2024-01-07T03:32:31;0.50;99.90
6956;DHT22;50345;51.136;16.886;2024-01-07T03:34:56;0.50;99.90
6956;DHT22;50345;51.136;16.886;2024-01-07T03:37:22;0.50;99.90
6956;DHT22;50345;51.136;16.886;2024-01-07T03:39:47;0.50;99.90
6956;DHT22;50345;51.136;16.886;2024-01-07T03:42:13;0.40;99.90
6956;DHT22;50345;51.136;16.886;2024-01-07T03:44:39;0.50;99.90
6956;DHT22;50345;51.136;16.886;2024-01-07T03:47:07;0.40;99.90
6956;DHT22;50345;51.136;16.886;2024-01-07T03:49:33;0.40;99.90
6956;DHT22;50345;51.136;16.886;2024-01-07T03:52:01;0.40;99.90
6956;DHT22;50345;51.136;16.886;2024-01-07T03:54:26;0.40;99.90
6956;DHT22;50345;51.136;16.886;2024-01-07T03:56:52;0.40;99.90
6956;DHT22;50345;51.136;16.886;2024-01-07T03:59:18;0.40;99.90
6956;DHT22;50345;51.136;16.886;2024-01-07T04:01:43;0.40;99.90
6956;DHT22;50345;51.136;16.886;2024-01-07T04:04:09;0.40;99.90
6956;DHT22;50345;51.136;16.886;2024-01-07T04:06:34;0.40;99.90
6956;DHT22;50345;51.136;16.886;2024-01-07T04:09:00;0.40;99.90
6956;DHT22;50345;51.136;16.886;2024-01-07T04:11:25;0.40;99.90
6956;DHT22;50345;51.136;16.886;2024-01-07T04:13:51;0.40;99.90
6956;DHT22;50345;51.136;16.886;2024-01-07T04:16:20;0.40;99.90
6956;DHT22;50345;51.136;16.886;2024-01-07T04:18:46;0.40;99.90
6956;DHT22;50345;51.136;16.886;2024-01-07T04:21:12;0.40;99.90
6956;DHT22;50345;51.136;16.886;2024-01-07T04:23:40;0.40;99.90
6956;DHT22;50345;51.136;16.886;2024-01-07T04:26:09;0.30;99.90
6956;DHT22;50345;51.136;16.886;2024-01-07T04:28:35;0.30;99.90
6956;DHT22;50345;51.136;16.886;2024-01-07T04:31:01;0.30;99.90
6956;DHT22;50345;51.136;16.886;2024-01-07T04:33:26;0.30;99.90
6956;DHT22;50345;51.136;16.886;2024-01-07T04:35:52;0.30;99.90
6956;DHT22;50345;51.136;16.886;2024-01-07T04:38:18;0.40;99.90
6956;DHT22;50345;51.136;16.886;2024-01-07T04:40:43;0.40;99.90
6956;DHT22;50345;51.136;16.886;2024-01-07T04:43:09;0.40;99.90
6956;DHT22;50345;51.136;16.886;2024-01-07T04:45:34;0.40;99.90
6956;DHT22;50345;51.136;16.886;2024-01-07T04:48:00;0.40;99.90
6956;DHT22;50345;51.136;16.886;2024-01-07T04:50:25;0.40;99.90
6956;DHT22;50345;51.136;16.886;2024-01-07T04:52:51;0.40;99.90
6956;DHT22;50345;51.136;16.886;2024-01-07T04:55:16;0.50;99.90
6956;DHT22;50345;51.136;16.886;2024-01-07T04:57:42;0.50;99.90
6956;DHT22;50345;51.136;16.886;2024-01-07T05:00:08;0.40;99.90
6956;DHT22;50345;51.136;16.886;2024-01-07T05:02:33;0.40;99.90
6956;DHT22;50345;51.136;16.886;2024-01-07T05:04:59;0.50;99.90
6956;DHT22;50345;51.136;16.886;2024-01-07T05:07:24;0.40;99.90
6956;DHT22;50345;51.136;16.886;2024-01-07T05:09:50;0.40;99.90
6956;DHT22;50345;51.136;16.886;2024-01-07T05:12:15;0.40;99.90
6956;DHT22;50345;51.136;16.886;2024-01-07T05:14:41;0.30;99.90
6956;DHT22;50345;51.136;16.886;2024-01-07T05:17:08;0.30;99.90
6956;DHT22;50345;51.136;16.886;2024-01-07T05:19:33;0.30;99.90
6956;DHT22;50345;51.136;16.886;2024-01-07T05:21:59;0.30;99.90
6956;DHT22;50345;51.136;16.886;2024-01-07T05:24:25;0.30;99.90
6956;DHT22;50345;51.136;16.886;2024-01-07T05:26:51;0.30;99.90
6956;DHT22;50345;51.136;16.886;2024-01-07T05:29:16;0.20;99.90
6956;DHT22;50345;51.136;16.886;2024-01-07T05:31:42;0.20;99.90
6956;DHT22;50345;51.136;16.886;2024-01-07T05:34:08;0.30;99.90
6956;DHT22;50345;51.136;16.886;2024-01-07T05:36:33;0.20;99.90
6956;DHT22;50345;51.136;16.886;2024-01-07T05:38:59;0.20;99.90
6956;DHT22;50345;51.136;16.886;2024-01-07T05:41:25;0.30;99.90
6956;DHT22;50345;51.136;16.886;2024-01-07T05:43:50;0.30;99.90
6956;DHT22;50345;51.136;16.886;2024-01-07T05:46:16;0.20;99.90
6956;DHT22;50345;51.136;16.886;2024-01-07T05:48:46;0.20;99.90
6956;DHT22;50345;51.136;16.886;2024-01-07T05:51:13;0.30;99.90
6956;DHT22;50345;51.136;16.886;2024-01-07T05:53:39;0.30;99.90
6956;DHT22;50345;51.136;16.886;2024-01-07T05:56:05;0.30;99.90
6956;DHT22;50345;51.136;16.886;2024-01-07T05:58:31;0.30;99.90
6956;DHT22;50345;51.136;16.886;2024-01-07T06:00:56;0.30;99.90
6956;DHT22;50345;51.136;16.886;2024-01-07T06:03:22;0.30;99.90
6956;DHT22;50345;51.136;16.886;2024-01-07T06:05:48;0.30;99.90
6956;DHT22;50345;51.136;16.886;2024-01-07T06:08:13;0.30;99.90
6956;DHT22;50345;51.136;16.886;2024-01-07T06:10:39;0.30;99.90
6956;DHT22;50345;51.136;16.886;2024-01-07T06:13:05;0.20;99.90
6956;DHT22;50345;51.136;16.886;2024-01-07T06:15:31;0.30;99.90
6956;DHT22;50345;51.136;16.886;2024-01-07T06:17:56;0.30;99.90
6956;DHT22;50345;51.136;16.886;2024-01-07T06:20:22;0.20;99.90
6956;DHT22;50345;51.136;16.886;2024-01-07T06:22:48;0.20;99.90
6956;DHT22;50345;51.136;16.886;2024-01-07T06:25:13;0.20;99.90
6956;DHT22;50345;51.136;16.886;2024-01-07T06:27:39;0.20;99.90
6956;DHT22;50345;51.136;16.886;2024-01-07T06:30:05;0.20;99.90
6956;DHT22;50345;51.136;16.886;2024-01-07T06:32:31;0.20;99.90
6956;DHT22;50345;51.136;16.886;2024-01-07T06:35:01;0.20;99.90
6956;DHT22;50345;51.136;16.886;2024-01-07T06:37:26;0.20;99.90
6956;DHT22;50345;51.136;16.886;2024-01-07T06:39:54;0.20;99.90
6956;DHT22;50345;51.136;16.886;2024-01-07T06:42:20;0.20;99.90
6956;DHT22;50345;51.136;16.886;2024-01-07T06:44:46;0.20;99.90
6956;DHT22;50345;51.136;16.886;2024-01-07T06:47:11;0.20;99.90
6956;DHT22;50345;51.136;16.886;2024-01-07T06:49:37;0.10;99.90
6956;DHT22;50345;51.136;16.886;2024-01-07T06:52:04;0.10;99.90
6956;DHT22;50345;51.136;16.886;2024-01-07T06:54:30;0.10;99.90
6956;DHT22;50345;51.136;16.886;2024-01-07T06:56:55;0.00;99.90
6956;DHT22;50345;51.136;16.886;2024-01-07T06:59:21;0.00;99.90
6956;DHT22;50345;51.136;16.886;2024-01-07T07:01:46;0.10;99.90
6956;DHT22;50345;51.136;16.886;2024-01-07T07:04:12;0.00;99.90
6956;DHT22;50345;51.136;16.886;2024-01-07T07:06:38;0.00;99.90
6956;DHT22;50345;51.136;16.886;2024-01-07T07:09:03;0.00;99.90
6956;DHT22;50345;51.136;16.886;2024-01-07T07:11:29;0.00;99.90
6956;DHT22;50345;51.136;16.886;2024-01-07T07:13:54;0.00;99.90
6956;DHT22;50345;51.136;16.886;2024-01-07T07:16:20;0.00;99.90
6956;DHT22;50345;51.136;16.886;2024-01-07T07:18:45;0.00;99.90
6956;DHT22;50345;51.136;16.886;2024-01-07T07:21:11;0.00;99.90
6956;DHT22;50345;51.136;16.886;2024-01-07T07:23:36;0.00;99.90
6956;DHT22;50345;51.136;16.886;2024-01-07T07:26:02;0.00;99.90
6956;DHT22;50345;51.136;16.886;2024-01-07T07:28:27;0.00;99.90
6956;DHT22;50345;51.136;16.886;2024-01-07T07:30:53;0.00;99.90
6956;DHT22;50345;51.136;16.886;2024-01-07T07:33:19;-0.10;99.90
6956;DHT22;50345;51.136;16.886;2024-01-07T07:35:44;-0.10;99.90
6956;DHT22;50345;51.136;16.886;2024-01-07T07:38:10;-0.10;99.90
6956;DHT22;50345;51.136;16.886;2024-01-07T07:40:36;-0.10;99.90
6956;DHT22;50345;51.136;16.886;2024-01-07T07:43:01;-0.20;99.90
6956;DHT22;50345;51.136;16.886;2024-01-07T07:45:27;-0.20;99.90
6956;DHT22;50345;51.136;16.886;2024-01-07T07:47:53;-0.20;99.90
6956;DHT22;50345;51.136;16.886;2024-01-07T07:50:18;-0.20;99.90
6956;DHT22;50345;51.136;16.886;2024-01-07T07:52:44;-0.20;99.90
6956;DHT22;50345;51.136;16.886;2024-01-07T07:55:10;-0.20;99.90
6956;DHT22;50345;51.136;16.886;2024-01-07T07:57:36;-0.20;99.90
6956;DHT22;50345;51.136;16.886;2024-01-07T08:00:07;-0.20;99.90
6956;DHT22;50345;51.136;16.886;2024-01-07T08:02:33;-0.10;99.90
6956;DHT22;50345;51.136;16.886;2024-01-07T08:04:58;-0.10;99.90
6956;DHT22;50345;51.136;16.886;2024-01-07T08:07:24;-0.10;99.90
6956;DHT22;50345;51.136;16.886;2024-01-07T08:09:50;-0.10;99.90
6956;DHT22;50345;51.136;16.886;2024-01-07T08:12:16;-0.10;99.90
6956;DHT22;50345;51.136;16.886;2024-01-07T08:14:41;-0.10;99.90
6956;DHT22;50345;51.136;16.886;2024-01-07T08:17:07;0.00;99.90
6956;DHT22;50345;51.136;16.886;2024-01-07T08:19:33;0.00;99.90
6956;DHT22;50345;51.136;16.886;2024-01-07T08:21:59;0.10;99.90
6956;DHT22;50345;51.136;16.886;2024-01-07T08:24:25;0.20;99.90
6956;DHT22;50345;51.136;16.886;2024-01-07T08:26:50;0.20;99.90
6956;DHT22;50345;51.136;16.886;2024-01-07T08:29:17;0.30;99.90
6956;DHT22;50345;51.136;16.886;2024-01-07T08:31:42;0.30;99.90
6956;DHT22;50345;51.136;16.886;2024-01-07T08:34:08;0.30;99.90
6956;DHT22;50345;51.136;16.886;2024-01-07T08:36:34;0.40;99.90
6956;DHT22;50345;51.136;16.886;2024-01-07T08:38:59;0.40;99.90
6956;DHT22;50345;51.136;16.886;2024-01-07T08:41:26;0.50;99.90
6956;DHT22;50345;51.136;16.886;2024-01-07T08:43:51;0.60;99.90
6956;DHT22;50345;51.136;16.886;2024-01-07T08:46:18;0.60;99.90
6956;DHT22;50345;51.136;16.886;2024-01-07T08:48:45;0.70;99.90
6956;DHT22;50345;51.136;16.886;2024-01-07T08:51:10;0.70;99.90
6956;DHT22;50345;51.136;16.886;2024-01-07T08:53:36;0.70;99.90
6956;DHT22;50345;51.136;16.886;2024-01-07T08:56:02;0.70;99.90
6956;DHT22;50345;51.136;16.886;2024-01-07T08:58:27;0.80;99.90
6956;DHT22;50345;51.136;16.886;2024-01-07T09:00:53;0.80;99.90
6956;DHT22;50345;51.136;16.886;2024-01-07T09:03:18;0.80;99.90
6956;DHT22;50345;51.136;16.886;2024-01-07T09:05:44;0.80;99.90
6956;DHT22;50345;51.136;16.886;2024-01-07T09:08:10;0.80;99.90
6956;DHT22;50345;51.136;16.886;2024-01-07T09:10:39;0.90;99.90
6956;DHT22;50345;51.136;16.886;2024-01-07T09:13:04;0.90;99.90
6956;DHT22;50345;51.136;16.886;2024-01-07T09:15:30;0.90;99.90
6956;DHT22;50345;51.136;16.886;2024-01-07T09:17:56;0.90;99.90
6956;DHT22;50345;51.136;16.886;2024-01-07T09:20:21;1.00;99.90
6956;DHT22;50345;51.136;16.886;2024-01-07T09:22:47;1.00;99.90
6956;DHT22;50345;51.136;16.886;2024-01-07T09:25:13;1.00;99.90
6956;DHT22;50345;51.136;16.886;2024-01-07T09:27:39;1.00;99.90
6956;DHT22;50345;51.136;16.886;2024-01-07T09:30:05;1.10;99.90
6956;DHT22;50345;51.136;16.886;2024-01-07T09:32:31;1.10;99.90
6956;DHT22;50345;51.136;16.886;2024-01-07T09:34:56;1.10;99.90
6956;DHT22;50345;51.136;16.886;2024-01-07T09:37:23;1.10;99.90
6956;DHT22;50345;51.136;16.886;2024-01-07T09:39:49;1.10;99.90
6956;DHT22;50345;51.136;16.886;2024-01-07T09:42:16;1.00;99.90
6956;DHT22;50345;51.136;16.886;2024-01-07T09:44:42;1.00;99.90
6956;DHT22;50345;51.136;16.886;2024-01-07T09:47:13;1.00;99.90
6956;DHT22;50345;51.136;16.886;2024-01-07T09:49:39;0.90;99.90
6956;DHT22;50345;51.136;16.886;2024-01-07T09:52:05;0.90;99.90
6956;DHT22;50345;51.136;16.886;2024-01-07T09:54:32;0.90;99.90
6956;DHT22;50345;51.136;16.886;2024-01-07T09:57:03;0.80;99.90
6956;DHT22;50345;51.136;16.886;2024-01-07T09:59:29;0.70;99.90
6956;DHT22;50345;51.136;16.886;2024-01-07T10:01:58;0.70;99.90
6956;DHT22;50345;51.136;16.886;2024-01-07T10:04:24;0.70;99.90
6956;DHT22;50345;51.136;16.886;2024-01-07T10:06:51;0.70;99.90
6956;DHT22;50345;51.136;16.886;2024-01-07T10:09:20;0.80;99.90
6956;DHT22;50345;51.136;16.886;2024-01-07T10:11:47;0.80;99.90
6956;DHT22;50345;51.136;16.886;2024-01-07T10:14:13;0.70;99.90
6956;DHT22;50345;51.136;16.886;2024-01-07T10:16:39;0.70;99.90
6956;DHT22;50345;51.136;16.886;2024-01-07T10:19:04;0.80;99.90
6956;DHT22;50345;51.136;16.886;2024-01-07T10:21:30;0.70;99.90
6956;DHT22;50345;51.136;16.886;2024-01-07T10:24:16;0.70;99.90
6956;DHT22;50345;51.136;16.886;2024-01-07T10:26:42;0.70;99.90
6956;DHT22;50345;51.136;16.886;2024-01-07T10:29:08;0.80;99.90
6956;DHT22;50345;51.136;16.886;2024-01-07T10:31:34;0.80;99.90
6956;DHT22;50345;51.136;16.886;2024-01-07T10:34:00;0.90;99.90
6956;DHT22;50345;51.136;16.886;2024-01-07T10:36:26;0.90;99.90
6956;DHT22;50345;51.136;16.886;2024-01-07T10:38:52;0.90;99.90
6956;DHT22;50345;51.136;16.886;2024-01-07T10:41:20;1.00;99.90
6956;DHT22;50345;51.136;16.886;2024-01-07T10:43:47;1.10;99.90
6956;DHT22;50345;51.136;16.886;2024-01-07T10:46:14;1.10;99.90
6956;DHT22;50345;51.136;16.886;2024-01-07T10:48:55;1.10;99.90
6956;DHT22;50345;51.136;16.886;2024-01-07T10:51:24;1.10;99.60
6956;DHT22;50345;51.136;16.886;2024-01-07T10:53:53;1.10;99.20
6956;DHT22;50345;51.136;16.886;2024-01-07T10:56:25;1.00;99.00
6956;DHT22;50345;51.136;16.886;2024-01-07T10:58:54;1.00;98.50
6956;DHT22;50345;51.136;16.886;2024-01-07T11:01:20;1.10;98.30
6956;DHT22;50345;51.136;16.886;2024-01-07T11:03:57;1.10;96.90
6956;DHT22;50345;51.136;16.886;2024-01-07T11:06:37;1.00;97.00
6956;DHT22;50345;51.136;16.886;2024-01-07T11:09:23;1.00;97.10
6956;DHT22;50345;51.136;16.886;2024-01-07T11:11:52;1.00;96.70
6956;DHT22;50345;51.136;16.886;2024-01-07T11:14:37;0.90;96.00
6956;DHT22;50345;51.136;16.886;2024-01-07T11:17:05;0.90;96.00
6956;DHT22;50345;51.136;16.886;2024-01-07T11:19:31;0.80;95.70
6956;DHT22;50345;51.136;16.886;2024-01-07T11:24:53;0.80;96.90
6956;DHT22;50345;51.136;16.886;2024-01-07T11:27:21;0.90;96.20
6956;DHT22;50345;51.136;16.886;2024-01-07T11:29:53;0.90;96.30
6956;DHT22;50345;51.136;16.886;2024-01-07T11:32:31;1.00;96.60
6956;DHT22;50345;51.136;16.886;2024-01-07T11:34:58;1.00;95.80
6956;DHT22;50345;51.136;16.886;2024-01-07T11:37:25;1.00;95.80
6956;DHT22;50345;51.136;16.886;2024-01-07T11:39:53;1.00;95.30
6956;DHT22;50345;51.136;16.886;2024-01-07T11:42:20;0.90;94.60
6956;DHT22;50345;51.136;16.886;2024-01-07T11:44:51;0.90;94.40
6956;DHT22;50345;51.136;16.886;2024-01-07T11:47:18;0.80;94.70
6956;DHT22;50345;51.136;16.886;2024-01-07T11:49:44;0.80;94.40
6956;DHT22;50345;51.136;16.886;2024-01-07T11:52:10;0.70;94.30
6956;DHT22;50345;51.136;16.886;2024-01-07T11:54:39;0.70;94.50
6956;DHT22;50345;51.136;16.886;2024-01-07T11:57:09;0.70;95.00
6956;DHT22;50345;51.136;16.886;2024-01-07T11:59:35;0.70;94.70
6956;DHT22;50345;51.136;16.886;2024-01-07T12:02:02;0.80;95.40
6956;DHT22;50345;51.136;16.886;2024-01-07T12:04:30;0.80;95.30
6956;DHT22;50345;51.136;16.886;2024-01-07T12:06:56;0.80;94.90
6956;DHT22;50345;51.136;16.886;2024-01-07T12:09:21;0.90;94.10
6956;DHT22;50345;51.136;16.886;2024-01-07T12:11:47;0.90;93.70
6956;DHT22;50345;51.136;16.886;2024-01-07T12:14:14;0.80;93.60
6956;DHT22;50345;51.136;16.886;2024-01-07T12:16:39;0.80;93.50
6956;DHT22;50345;51.136;16.886;2024-01-07T12:19:05;0.80;93.60
6956;DHT22;50345;51.136;16.886;2024-01-07T12:21:31;0.80;94.10
6956;DHT22;50345;51.136;16.886;2024-01-07T12:23:57;0.80;94.50
6956;DHT22;50345;51.136;16.886;2024-01-07T12:26:27;0.80;94.10
6956;DHT22;50345;51.136;16.886;2024-01-07T12:28:57;0.80;93.60
6956;DHT22;50345;51.136;16.886;2024-01-07T12:31:33;0.70;93.10
6956;DHT22;50345;51.136;16.886;2024-01-07T12:33:59;0.60;93.10
6956;DHT22;50345;51.136;16.886;2024-01-07T12:36:25;0.70;92.90
6956;DHT22;50345;51.136;16.886;2024-01-07T12:38:52;0.60;92.50
6956;DHT22;50345;51.136;16.886;2024-01-07T12:41:22;0.60;92.80
6956;DHT22;50345;51.136;16.886;2024-01-07T12:43:48;0.60;92.30
6956;DHT22;50345;51.136;16.886;2024-01-07T12:46:14;0.60;92.40
6956;DHT22;50345;51.136;16.886;2024-01-07T12:48:40;0.70;92.60
6956;DHT22;50345;51.136;16.886;2024-01-07T12:51:05;0.80;92.70
6956;DHT22;50345;51.136;16.886;2024-01-07T12:53:31;0.80;92.90
6956;DHT22;50345;51.136;16.886;2024-01-07T12:55:56;0.80;92.70
6956;DHT22;50345;51.136;16.886;2024-01-07T12:58:22;0.80;92.60
6956;DHT22;50345;51.136;16.886;2024-01-07T13:00:48;0.80;92.40
6956;DHT22;50345;51.136;16.886;2024-01-07T13:03:13;0.70;92.00
6956;DHT22;50345;51.136;16.886;2024-01-07T13:05:43;0.60;91.40
6956;DHT22;50345;51.136;16.886;2024-01-07T13:08:09;0.40;91.60
6956;DHT22;50345;51.136;16.886;2024-01-07T13:10:35;0.40;91.60
6956;DHT22;50345;51.136;16.886;2024-01-07T13:13:00;0.30;91.50
6956;DHT22;50345;51.136;16.886;2024-01-07T13:15:26;0.20;91.50
6956;DHT22;50345;51.136;16.886;2024-01-07T13:17:51;0.10;91.60
6956;DHT22;50345;51.136;16.886;2024-01-07T13:20:17;0.00;91.50
6956;DHT22;50345;51.136;16.886;2024-01-07T13:22:45;0.00;91.60
6956;DHT22;50345;51.136;16.886;2024-01-07T13:25:11;-0.10;91.30
6956;DHT22;50345;51.136;16.886;2024-01-07T13:27:37;-0.20;91.10
6956;DHT22;50345;51.136;16.886;2024-01-07T13:30:03;-0.30;91.30
6956;DHT22;50345;51.136;16.886;2024-01-07T13:32:29;-0.30;91.60
6956;DHT22;50345;51.136;16.886;2024-01-07T13:34:55;-0.30;91.80
6956;DHT22;50345;51.136;16.886;2024-01-07T13:37:21;-0.40;91.90
6956;DHT22;50345;51.136;16.886;2024-01-07T13:39:47;-0.40;91.90
6956;DHT22;50345;51.136;16.886;2024-01-07T13:42:14;-0.40;91.60
6956;DHT22;50345;51.136;16.886;2024-01-07T13:44:40;-0.50;91.40
6956;DHT22;50345;51.136;16.886;2024-01-07T13:47:12;-0.60;91.40
6956;DHT22;50345;51.136;16.886;2024-01-07T13:49:39;-0.60;91.80
6956;DHT22;50345;51.136;16.886;2024-01-07T13:52:05;-0.60;91.90
6956;DHT22;50345;51.136;16.886;2024-01-07T13:54:30;-0.70;91.50
6956;DHT22;50345;51.136;16.886;2024-01-07T13:56:56;-0.70;91.60
6956;DHT22;50345;51.136;16.886;2024-01-07T13:59:22;-0.70;91.70
6956;DHT22;50345;51.136;16.886;2024-01-07T14:01:48;-0.70;92.00
6956;DHT22;50345;51.136;16.886;2024-01-07T14:04:14;-0.70;92.10
6956;DHT22;50345;51.136;16.886;2024-01-07T14:06:40;-0.70;92.30
6956;DHT22;50345;51.136;16.886;2024-01-07T14:09:06;-0.70;92.40
6956;DHT22;50345;51.136;16.886;2024-01-07T14:11:33;-0.70;92.50
6956;DHT22;50345;51.136;16.886;2024-01-07T14:13:59;-0.70;92.30
6956;DHT22;50345;51.136;16.886;2024-01-07T14:16:26;-0.80;92.40
6956;DHT22;50345;51.136;16.886;2024-01-07T14:18:51;-0.80;92.50
6956;DHT22;50345;51.136;16.886;2024-01-07T14:21:17;-0.90;92.40
6956;DHT22;50345;51.136;16.886;2024-01-07T14:23:43;-0.90;92.60
6956;DHT22;50345;51.136;16.886;2024-01-07T14:26:09;-1.00;92.70
6956;DHT22;50345;51.136;16.886;2024-01-07T14:28:34;-1.00;92.70
6956;DHT22;50345;51.136;16.886;2024-01-07T14:31:01;-1.10;92.80
6956;DHT22;50345;51.136;16.886;2024-01-07T14:33:27;-1.20;93.00
6956;DHT22;50345;51.136;16.886;2024-01-07T14:35:52;-1.30;92.90
6956;DHT22;50345;51.136;16.886;2024-01-07T14:38:18;-1.40;92.90
6956;DHT22;50345;51.136;16.886;2024-01-07T14:40:44;-1.50;93.50
6956;DHT22;50345;51.136;16.886;2024-01-07T14:43:12;-1.50;93.70
6956;DHT22;50345;51.136;16.886;2024-01-07T14:45:37;-1.60;94.00
6956;DHT22;50345;51.136;16.886;2024-01-07T14:48:03;-1.70;94.00
6956;DHT22;50345;51.136;16.886;2024-01-07T14:50:30;-1.70;94.30
6956;DHT22;50345;51.136;16.886;2024-01-07T14:52:56;-1.80;94.60
6956;DHT22;50345;51.136;16.886;2024-01-07T14:55:21;-1.90;94.70
6956;DHT22;50345;51.136;16.886;2024-01-07T14:57:47;-2.00;94.70
6956;DHT22;50345;51.136;16.886;2024-01-07T15:00:13;-2.10;94.90
6956;DHT22;50345;51.136;16.886;2024-01-07T15:02:39;-2.10;95.20
6956;DHT22;50345;51.136;16.886;2024-01-07T15:05:05;-2.10;95.40
6956;DHT22;50345;51.136;16.886;2024-01-07T15:07:31;-2.10;95.60
6956;DHT22;50345;51.136;16.886;2024-01-07T15:09:57;-2.20;95.70
6956;DHT22;50345;51.136;16.886;2024-01-07T15:12:25;-2.30;95.70
6956;DHT22;50345;51.136;16.886;2024-01-07T15:14:50;-2.40;95.90
6956;DHT22;50345;51.136;16.886;2024-01-07T15:17:16;-2.40;96.20
6956;DHT22;50345;51.136;16.886;2024-01-07T15:19:45;-2.40;96.40
6956;DHT22;50345;51.136;16.886;2024-01-07T15:22:11;-2.50;96.70
6956;DHT22;50345;51.136;16.886;2024-01-07T15:24:37;-2.40;97.00
6956;DHT22;50345;51.136;16.886;2024-01-07T15:27:03;-2.40;97.30
6956;DHT22;50345;51.136;16.886;2024-01-07T15:29:28;-2.50;97.50
6956;DHT22;50345;51.136;16.886;2024-01-07T15:31:54;-2.50;97.30
6956;DHT22;50345;51.136;16.886;2024-01-07T15:34:19;-2.60;97.10
6956;DHT22;50345;51.136;16.886;2024-01-07T15:36:45;-2.60;97.30
6956;DHT22;50345;51.136;16.886;2024-01-07T15:39:10;-2.60;97.50